sensor_id;sensor_type;location;lat;lon;timestamp;pressure;altitude;pressure_sealevel;temperature;humidity
19596;BME280;9945;46.010;8.946;2023-05-19T00:01:43;97507.88;;;17.34;96.95
19596;BME280;9945;46.010;8.946;2023-05-19T00:04:13;97509.41;;;17.43;98.36
19596;BME280;9945;46.010;8.946;2023-05-19T00:06:42;97507.19;;;17.47;98.44
19596;BME280;9945;46.010;8.946;2023-05-19T00:09:11;97506.22;;;17.33;98.17
19596;BME280;9945;46.010;8.946;2023-05-19T00:11:38;97506.22;;;17.33;98.38
19596;BME280;9945;46.010;8.946;2023-05-19T00:14:07;97508.19;;;17.46;96.81
19596;BME280;9945;46.010;8.946;2023-05-19T00:16:35;97499.91;;;17.49;96.16
19596;BME280;9945;46.010;8.946;2023-05-19T00:19:04;97503.09;;;17.44;96.00
19596;BME280;9945;46.010;8.946;2023-05-19T00:21:34;97493.50;;;17.28;95.33
19596;BME280;9945;46.010;8.946;2023-05-19T00:24:04;97493.25;;;17.38;95.37
19596;BME280;9945;46.010;8.946;2023-05-19T00:26:31;97492.41;;;17.37;96.24
19596;BME280;9945;46.010;8.946;2023-05-19T00:28:58;97489.50;;;17.32;97.80
19596;BME280;9945;46.010;8.946;2023-05-19T00:31:25;97494.34;;;17.44;97.46
19596;BME280;9945;46.010;8.946;2023-05-19T00:33:52;97491.50;;;17.30;97.98
19596;BME280;9945;46.010;8.946;2023-05-19T00:36:19;97492.97;;;17.48;97.38
19596;BME280;9945;46.010;8.946;2023-05-19T00:38:45;97492.25;;;17.39;96.58
19596;BME280;9945;46.010;8.946;2023-05-19T00:41:14;97483.13;;;17.42;96.61
19596;BME280;9945;46.010;8.946;2023-05-19T00:43:40;97488.50;;;17.48;96.81
19596;BME280;9945;46.010;8.946;2023-05-19T00:46:07;97488.31;;;17.50;96.23
19596;BME280;9945;46.010;8.946;2023-05-19T00:48:35;97486.47;;;17.35;97.28
19596;BME280;9945;46.010;8.946;2023-05-19T00:51:03;97489.66;;;17.46;98.06
19596;BME280;9945;46.010;8.946;2023-05-19T00:53:31;97485.66;;;17.50;98.37
19596;BME280;9945;46.010;8.946;2023-05-19T00:56:00;97489.13;;;17.50;96.22
19596;BME280;9945;46.010;8.946;2023-05-19T00:58:29;97485.03;;;17.48;95.34
19596;BME280;9945;46.010;8.946;2023-05-19T01:00:57;97483.13;;;17.42;94.42
19596;BME280;9945;46.010;8.946;2023-05-19T01:03:28;97487.78;;;17.39;95.09
19596;BME280;9945;46.010;8.946;2023-05-19T01:05:57;97480.81;;;17.38;96.02
19596;BME280;9945;46.010;8.946;2023-05-19T01:08:30;97473.88;;;17.37;96.10
19596;BME280;9945;46.010;8.946;2023-05-19T01:10:57;97469.50;;;17.30;96.78
19596;BME280;9945;46.010;8.946;2023-05-19T01:13:24;97476.91;;;17.34;96.56
19596;BME280;9945;46.010;8.946;2023-05-19T01:15:59;97464.97;;;17.24;95.27
19596;BME280;9945;46.010;8.946;2023-05-19T01:18:38;97468.16;;;17.19;96.66
19596;BME280;9945;46.010;8.946;2023-05-19T01:24:10;97469.25;;;17.25;96.49
19596;BME280;9945;46.010;8.946;2023-05-19T01:27:06;97478.56;;;17.21;97.12
19596;BME280;9945;46.010;8.946;2023-05-19T01:29:42;97468.97;;;17.20;97.11
19596;BME280;9945;46.010;8.946;2023-05-19T01:32:22;97476.00;;;17.27;96.98
19596;BME280;9945;46.010;8.946;2023-05-19T01:34:51;97478.94;;;17.32;95.95
19596;BME280;9945;46.010;8.946;2023-05-19T01:37:20;97473.56;;;17.26;96.13
19596;BME280;9945;46.010;8.946;2023-05-19T01:39:47;97486.22;;;17.16;97.05
19596;BME280;9945;46.010;8.946;2023-05-19T01:42:16;97477.91;;;17.19;97.47
19596;BME280;9945;46.010;8.946;2023-05-19T01:44:43;97480.56;;;17.19;97.13
19596;BME280;9945;46.010;8.946;2023-05-19T01:47:11;97482.03;;;17.21;98.21
19596;BME280;9945;46.010;8.946;2023-05-19T01:49:39;97472.81;;;17.32;98.82
19596;BME280;9945;46.010;8.946;2023-05-19T01:52:06;97474.06;;;17.36;98.45
19596;BME280;9945;46.010;8.946;2023-05-19T01:54:33;97477.09;;;17.33;98.33
19596;BME280;9945;46.010;8.946;2023-05-19T01:57:09;97479.19;;;17.23;100.00
19596;BME280;9945;46.010;8.946;2023-05-19T01:59:51;97474.25;;;17.20;100.00
19596;BME280;9945;46.010;8.946;2023-05-19T02:02:25;97483.19;;;17.19;100.00
19596;BME280;9945;46.010;8.946;2023-05-19T02:05:04;97479.38;;;17.21;100.00
19596;BME280;9945;46.010;8.946;2023-05-19T02:07:41;97483.03;;;17.06;100.00
19596;BME280;9945;46.010;8.946;2023-05-19T02:10:13;97484.59;;;17.00;99.80
19596;BME280;9945;46.010;8.946;2023-05-19T02:12:41;97485.03;;;17.03;99.73
19596;BME280;9945;46.010;8.946;2023-05-19T02:15:11;97478.28;;;17.16;98.64
19596;BME280;9945;46.010;8.946;2023-05-19T02:17:42;97482.19;;;17.05;97.64
19596;BME280;9945;46.010;8.946;2023-05-19T02:20:14;97486.22;;;17.01;96.49
19596;BME280;9945;46.010;8.946;2023-05-19T02:22:41;97479.25;;;16.85;98.99
19596;BME280;9945;46.010;8.946;2023-05-19T02:25:09;97480.47;;;16.83;97.53
19596;BME280;9945;46.010;8.946;2023-05-19T02:27:37;97475.19;;;16.83;97.99
19596;BME280;9945;46.010;8.946;2023-05-19T02:30:05;97482.66;;;16.94;98.81
19596;BME280;9945;46.010;8.946;2023-05-19T02:32:33;97480.94;;;17.01;98.79
19596;BME280;9945;46.010;8.946;2023-05-19T02:35:00;97482.47;;;16.95;100.00
19596;BME280;9945;46.010;8.946;2023-05-19T02:37:29;97482.91;;;16.84;100.00
19596;BME280;9945;46.010;8.946;2023-05-19T02:39:57;97486.94;;;16.95;100.00
19596;BME280;9945;46.010;8.946;2023-05-19T02:42:23;97472.72;;;16.81;100.00
19596;BME280;9945;46.010;8.946;2023-05-19T02:44:52;97474.72;;;16.94;100.00
19596;BME280;9945;46.010;8.946;2023-05-19T02:47:19;97476.25;;;17.03;100.00
19596;BME280;9945;46.010;8.946;2023-05-19T02:49:46;97470.53;;;16.99;100.00
19596;BME280;9945;46.010;8.946;2023-05-19T02:52:13;97479.66;;;16.97;100.00
19596;BME280;9945;46.010;8.946;2023-05-19T02:54:42;97471.97;;;17.02;100.00
19596;BME280;9945;46.010;8.946;2023-05-19T02:57:09;97468.25;;;16.96;100.00
19596;BME280;9945;46.010;8.946;2023-05-19T02:59:36;97469.88;;;16.83;100.00
19596;BME280;9945;46.010;8.946;2023-05-19T03:02:03;97478.56;;;16.91;100.00
19596;BME280;9945;46.010;8.946;2023-05-19T03:04:30;97470.88;;;16.96;100.00
19596;BME280;9945;46.010;8.946;2023-05-19T03:06:56;97471.06;;;16.95;99.63
19596;BME280;9945;46.010;8.946;2023-05-19T03:09:23;97462.66;;;16.77;100.00
19596;BME280;9945;46.010;8.946;2023-05-19T03:11:51;97464.69;;;16.75;100.00
19596;BME280;9945;46.010;8.946;2023-05-19T03:14:18;97454.34;;;16.65;100.00
19596;BME280;9945;46.010;8.946;2023-05-19T03:16:48;97460.38;;;16.51;100.00
19596;BME280;9945;46.010;8.946;2023-05-19T03:19:15;97459.47;;;16.44;100.00
19596;BME280;9945;46.010;8.946;2023-05-19T03:21:42;97462.94;;;16.59;100.00
19596;BME280;9945;46.010;8.946;2023-05-19T03:24:09;97463.47;;;16.62;100.00
19596;BME280;9945;46.010;8.946;2023-05-19T03:26:36;97459.66;;;16.65;100.00
19596;BME280;9945;46.010;8.946;2023-05-19T03:29:04;97465.59;;;16.67;100.00
19596;BME280;9945;46.010;8.946;2023-05-19T03:31:31;97467.03;;;16.70;100.00
19596;BME280;9945;46.010;8.946;2023-05-19T03:33:58;97465.59;;;16.67;100.00
19596;BME280;9945;46.010;8.946;2023-05-19T03:36:24;97465.69;;;16.74;100.00
19596;BME280;9945;46.010;8.946;2023-05-19T03:38:56;97468.31;;;16.74;100.00
19596;BME280;9945;46.010;8.946;2023-05-19T03:41:23;97473.06;;;16.78;100.00
19596;BME280;9945;46.010;8.946;2023-05-19T03:43:49;97473.22;;;16.77;100.00
19596;BME280;9945;46.010;8.946;2023-05-19T03:46:18;97470.31;;;16.72;100.00
19596;BME280;9945;46.010;8.946;2023-05-19T03:48:44;97476.25;;;16.74;100.00
19596;BME280;9945;46.010;8.946;2023-05-19T03:51:11;97467.09;;;16.61;100.00
19596;BME280;9945;46.010;8.946;2023-05-19T03:53:38;97478.44;;;16.47;100.00
19596;BME280;9945;46.010;8.946;2023-05-19T03:56:05;97478.50;;;16.62;100.00
19596;BME280;9945;46.010;8.946;2023-05-19T03:58:33;97473.88;;;16.64;100.00
19596;BME280;9945;46.010;8.946;2023-05-19T04:01:01;97477.00;;;16.59;99.97
19596;BME280;9945;46.010;8.946;2023-05-19T04:03:29;97483.34;;;16.50;100.00
19596;BME280;9945;46.010;8.946;2023-05-19T04:05:56;97483.00;;;16.53;100.00
19596;BME280;9945;46.010;8.946;2023-05-19T04:08:23;97482.50;;;16.58;100.00
19596;BME280;9945;46.010;8.946;2023-05-19T04:10:50;97487.19;;;16.48;100.00
19596;BME280;9945;46.010;8.946;2023-05-19T04:13:17;97486.72;;;16.44;100.00
19596;BME280;9945;46.010;8.946;2023-05-19T04:15:44;97488.53;;;16.44;100.00
19596;BME280;9945;46.010;8.946;2023-05-19T04:18:10;97487.47;;;16.53;100.00
19596;BME280;9945;46.010;8.946;2023-05-19T04:20:39;97494.19;;;16.63;100.00
19596;BME280;9945;46.010;8.946;2023-05-19T04:23:06;97488.81;;;16.72;100.00
19596;BME280;9945;46.010;8.946;2023-05-19T04:25:33;97477.97;;;16.67;100.00
19596;BME280;9945;46.010;8.946;2023-05-19T04:28:00;97482.88;;;16.70;100.00
19596;BME280;9945;46.010;8.946;2023-05-19T04:30:27;97487.19;;;16.71;100.00
19596;BME280;9945;46.010;8.946;2023-05-19T04:32:55;97489.28;;;16.52;100.00
19596;BME280;9945;46.010;8.946;2023-05-19T04:35:22;97492.81;;;16.45;100.00
19596;BME280;9945;46.010;8.946;2023-05-19T04:37:50;97489.00;;;16.47;100.00
19596;BME280;9945;46.010;8.946;2023-05-19T04:40:18;97488.63;;;16.50;100.00
19596;BME280;9945;46.010;8.946;2023-05-19T04:42:48;97491.00;;;16.45;100.00
19596;BME280;9945;46.010;8.946;2023-05-19T04:45:16;97497.59;;;16.49;100.00
19596;BME280;9945;46.010;8.946;2023-05-19T04:47:43;97491.56;;;16.41;100.00
19596;BME280;9945;46.010;8.946;2023-05-19T04:50:11;97490.94;;;16.53;100.00
19596;BME280;9945;46.010;8.946;2023-05-19T04:52:38;97497.59;;;16.49;100.00
19596;BME280;9945;46.010;8.946;2023-05-19T04:55:08;97497.03;;;16.54;100.00
19596;BME280;9945;46.010;8.946;2023-05-19T04:57:35;97502.16;;;16.55;100.00
19596;BME280;9945;46.010;8.946;2023-05-19T05:00:04;97503.28;;;16.61;100.00
19596;BME280;9945;46.010;8.946;2023-05-19T05:02:32;97494.41;;;16.54;100.00
19596;BME280;9945;46.010;8.946;2023-05-19T05:04:59;97499.78;;;16.60;100.00
19596;BME280;9945;46.010;8.946;2023-05-19T05:07:26;97503.44;;;16.59;100.00
19596;BME280;9945;46.010;8.946;2023-05-19T05:09:53;97505.59;;;16.64;100.00
19596;BME280;9945;46.010;8.946;2023-05-19T05:12:22;97504.59;;;16.65;100.00
19596;BME280;9945;46.010;8.946;2023-05-19T05:14:49;97504.75;;;16.63;100.00
19596;BME280;9945;46.010;8.946;2023-05-19T05:17:17;97506.59;;;16.63;100.00
19596;BME280;9945;46.010;8.946;2023-05-19T05:19:45;97499.56;;;16.70;100.00
19596;BME280;9945;46.010;8.946;2023-05-19T05:22:13;97506.25;;;16.66;100.00
19596;BME280;9945;46.010;8.946;2023-05-19T05:24:41;97502.13;;;16.63;100.00
19596;BME280;9945;46.010;8.946;2023-05-19T05:27:07;97495.28;;;16.69;100.00
19596;BME280;9945;46.010;8.946;2023-05-19T05:29:36;97482.06;;;16.69;100.00
19596;BME280;9945;46.010;8.946;2023-05-19T05:32:03;97491.94;;;16.75;100.00
19596;BME280;9945;46.010;8.946;2023-05-19T05:34:30;97493.84;;;16.67;100.00
19596;BME280;9945;46.010;8.946;2023-05-19T05:36:57;97497.59;;;16.49;100.00
19596;BME280;9945;46.010;8.946;2023-05-19T05:39:23;97497.34;;;16.36;100.00
19596;BME280;9945;46.010;8.946;2023-05-19T05:41:51;97499.75;;;16.46;100.00
19596;BME280;9945;46.010;8.946;2023-05-19T05:44:18;97500.59;;;16.46;100.00
19596;BME280;9945;46.010;8.946;2023-05-19T05:46:47;97492.84;;;16.59;100.00
19596;BME280;9945;46.010;8.946;2023-05-19T05:49:14;97493.53;;;16.61;100.00
19596;BME280;9945;46.010;8.946;2023-05-19T05:51:41;97497.09;;;16.69;100.00
19596;BME280;9945;46.010;8.946;2023-05-19T05:54:10;97500.88;;;16.74;100.00
19596;BME280;9945;46.010;8.946;2023-05-19T05:56:38;97503.22;;;16.69;100.00
19596;BME280;9945;46.010;8.946;2023-05-19T05:59:05;97497.59;;;16.72;100.00
19596;BME280;9945;46.010;8.946;2023-05-19T06:01:32;97490.56;;;16.64;100.00
19596;BME280;9945;46.010;8.946;2023-05-19T06:04:01;97495.94;;;16.48;100.00
19596;BME280;9945;46.010;8.946;2023-05-19T06:06:28;97498.22;;;16.51;100.00
19596;BME280;9945;46.010;8.946;2023-05-19T06:08:55;97497.38;;;16.51;100.00
19596;BME280;9945;46.010;8.946;2023-05-19T06:11:22;97500.66;;;16.38;100.00
19596;BME280;9945;46.010;8.946;2023-05-19T06:13:49;97502.94;;;16.41;100.00
19596;BME280;9945;46.010;8.946;2023-05-19T06:16:16;97493.72;;;16.37;100.00
19596;BME280;9945;46.010;8.946;2023-05-19T06:18:43;97495.03;;;16.41;100.00
19596;BME280;9945;46.010;8.946;2023-05-19T06:21:11;97503.16;;;16.54;100.00
19596;BME280;9945;46.010;8.946;2023-05-19T06:23:38;97506.34;;;16.50;100.00
19596;BME280;9945;46.010;8.946;2023-05-19T06:26:05;97499.41;;;16.49;100.00
19596;BME280;9945;46.010;8.946;2023-05-19T06:28:32;97506.16;;;16.51;100.00
19596;BME280;9945;46.010;8.946;2023-05-19T06:30:59;97509.16;;;16.03;100.00
19596;BME280;9945;46.010;8.946;2023-05-19T06:33:26;97500.41;;;16.02;100.00
19596;BME280;9945;46.010;8.946;2023-05-19T06:35:53;97511.75;;;16.11;100.00
19596;BME280;9945;46.010;8.946;2023-05-19T06:38:21;97516.91;;;16.04;100.00
19596;BME280;9945;46.010;8.946;2023-05-19T06:40:48;97518.53;;;15.74;100.00
19596;BME280;9945;46.010;8.946;2023-05-19T06:43:14;97515.47;;;15.94;100.00
19596;BME280;9945;46.010;8.946;2023-05-19T06:45:42;97512.53;;;15.88;100.00
19596;BME280;9945;46.010;8.946;2023-05-19T06:48:09;97517.66;;;15.90;100.00
19596;BME280;9945;46.010;8.946;2023-05-19T06:50:35;97518.34;;;15.84;100.00
19596;BME280;9945;46.010;8.946;2023-05-19T06:53:02;97516.22;;;15.79;100.00
19596;BME280;9945;46.010;8.946;2023-05-19T06:55:31;97523.66;;;15.76;100.00
19596;BME280;9945;46.010;8.946;2023-05-19T06:57:58;97513.25;;;15.74;100.00
19596;BME280;9945;46.010;8.946;2023-05-19T07:00:25;97515.31;;;15.95;100.00
19596;BME280;9945;46.010;8.946;2023-05-19T07:02:52;97520.81;;;16.08;100.00
19596;BME280;9945;46.010;8.946;2023-05-19T07:05:19;97519.00;;;16.09;100.00
19596;BME280;9945;46.010;8.946;2023-05-19T07:07:46;97528.59;;;16.10;100.00
19596;BME280;9945;46.010;8.946;2023-05-19T07:10:12;97524.19;;;16.02;100.00
19596;BME280;9945;46.010;8.946;2023-05-19T07:12:41;97522.31;;;16.11;100.00
19596;BME280;9945;46.010;8.946;2023-05-19T07:15:08;97525.66;;;16.05;100.00
19596;BME280;9945;46.010;8.946;2023-05-19T07:17:35;97529.94;;;15.75;100.00
19596;BME280;9945;46.010;8.946;2023-05-19T07:20:02;97524.44;;;15.84;100.00
19596;BME280;9945;46.010;8.946;2023-05-19T07:22:31;97533.09;;;16.01;100.00
19596;BME280;9945;46.010;8.946;2023-05-19T07:24:59;97523.44;;;15.85;100.00
19596;BME280;9945;46.010;8.946;2023-05-19T07:27:26;97521.06;;;15.99;100.00
19596;BME280;9945;46.010;8.946;2023-05-19T07:29:54;97523.81;;;15.74;100.00
19596;BME280;9945;46.010;8.946;2023-05-19T07:32:21;97517.78;;;15.97;100.00
19596;BME280;9945;46.010;8.946;2023-05-19T07:34:48;97529.25;;;15.81;100.00
19596;BME280;9945;46.010;8.946;2023-05-19T07:37:15;97523.00;;;16.05;100.00
19596;BME280;9945;46.010;8.946;2023-05-19T07:39:42;97512.63;;;16.03;100.00
19596;BME280;9945;46.010;8.946;2023-05-19T07:42:08;97514.59;;;16.01;100.00
19596;BME280;9945;46.010;8.946;2023-05-19T07:44:35;97516.94;;;15.96;100.00
19596;BME280;9945;46.010;8.946;2023-05-19T07:47:04;97517.78;;;15.97;100.00
19596;BME280;9945;46.010;8.946;2023-05-19T07:49:31;97517.72;;;16.05;100.00
19596;BME280;9945;46.010;8.946;2023-05-19T07:51:58;97521.31;;;16.12;100.00
19596;BME280;9945;46.010;8.946;2023-05-19T07:54:25;97521.44;;;16.18;100.00
19596;BME280;9945;46.010;8.946;2023-05-19T07:56:52;97518.38;;;16.07;100.00
19596;BME280;9945;46.010;8.946;2023-05-19T07:59:18;97515.13;;;15.97;100.00
19596;BME280;9945;46.010;8.946;2023-05-19T08:01:45;97516.38;;;16.09;100.00
19596;BME280;9945;46.010;8.946;2023-05-19T08:04:13;97522.13;;;16.12;100.00
19596;BME280;9945;46.010;8.946;2023-05-19T08:06:40;97516.78;;;16.20;100.00
19596;BME280;9945;46.010;8.946;2023-05-19T08:09:08;97521.91;;;16.22;100.00
19596;BME280;9945;46.010;8.946;2023-05-19T08:11:36;97522.72;;;16.22;100.00
19596;BME280;9945;46.010;8.946;2023-05-19T08:14:03;97523.78;;;16.36;100.00
19596;BME280;9945;46.010;8.946;2023-05-19T08:16:30;97516.28;;;16.48;100.00
19596;BME280;9945;46.010;8.946;2023-05-19T08:18:56;97518.16;;;16.39;100.00
19596;BME280;9945;46.010;8.946;2023-05-19T08:21:28;97520.00;;;16.53;100.00
19596;BME280;9945;46.010;8.946;2023-05-19T08:23:55;97518.44;;;16.44;100.00
19596;BME280;9945;46.010;8.946;2023-05-19T08:26:22;97516.63;;;16.45;100.00
19596;BME280;9945;46.010;8.946;2023-05-19T08:28:49;97508.16;;;16.49;100.00
19596;BME280;9945;46.010;8.946;2023-05-19T08:31:16;97516.03;;;16.57;100.00
19596;BME280;9945;46.010;8.946;2023-05-19T08:33:43;97521.69;;;16.32;100.00
19596;BME280;9945;46.010;8.946;2023-05-19T08:36:10;97520.84;;;16.31;100.00
19596;BME280;9945;46.010;8.946;2023-05-19T08:38:38;97514.97;;;16.21;100.00
19596;BME280;9945;46.010;8.946;2023-05-19T08:41:05;97515.91;;;16.28;100.00
19596;BME280;9945;46.010;8.946;2023-05-19T08:43:32;97521.13;;;16.36;100.00
19596;BME280;9945;46.010;8.946;2023-05-19T08:45:59;97524.31;;;16.32;100.00
19596;BME280;9945;46.010;8.946;2023-05-19T08:48:28;97522.03;;;16.28;100.00
19596;BME280;9945;46.010;8.946;2023-05-19T08:51:00;97523.88;;;15.97;100.00
19596;BME280;9945;46.010;8.946;2023-05-19T08:53:35;97521.28;;;15.89;100.00
19596;BME280;9945;46.010;8.946;2023-05-19T08:56:07;97529.84;;;15.91;100.00
19596;BME280;9945;46.010;8.946;2023-05-19T08:58:37;97521.63;;;15.86;100.00
19596;BME280;9945;46.010;8.946;2023-05-19T09:01:05;97518.38;;;16.07;100.00
19596;BME280;9945;46.010;8.946;2023-05-19T09:03:33;97516.97;;;16.19;100.00
19596;BME280;9945;46.010;8.946;2023-05-19T09:06:04;97506.28;;;16.35;100.00
19596;BME280;9945;46.010;8.946;2023-05-19T09:08:32;97502.22;;;16.47;100.00
19596;BME280;9945;46.010;8.946;2023-05-19T09:10:59;97517.09;;;16.48;100.00
19596;BME280;9945;46.010;8.946;2023-05-19T09:13:27;97520.94;;;16.60;100.00
19596;BME280;9945;46.010;8.946;2023-05-19T09:15:55;97518.38;;;16.52;100.00
19596;BME280;9945;46.010;8.946;2023-05-19T09:18:23;97517.25;;;16.70;100.00
19596;BME280;9945;46.010;8.946;2023-05-19T09:20:55;97519.25;;;16.68;100.00
19596;BME280;9945;46.010;8.946;2023-05-19T09:23:26;97519.84;;;16.78;100.00
19596;BME280;9945;46.010;8.946;2023-05-19T09:25:53;97518.94;;;16.85;100.00
19596;BME280;9945;46.010;8.946;2023-05-19T09:28:27;97528.25;;;16.96;100.00
19596;BME280;9945;46.010;8.946;2023-05-19T09:30:58;97524.06;;;16.87;100.00
19596;BME280;9945;46.010;8.946;2023-05-19T09:33:26;97519.63;;;16.64;100.00
19596;BME280;9945;46.010;8.946;2023-05-19T09:35:53;97516.44;;;16.69;100.00
19596;BME280;9945;46.010;8.946;2023-05-19T09:38:21;97515.38;;;16.78;100.00
19596;BME280;9945;46.010;8.946;2023-05-19T09:40:48;97524.78;;;16.58;100.00
19596;BME280;9945;46.010;8.946;2023-05-19T09:43:15;97512.25;;;16.52;100.00
19596;BME280;9945;46.010;8.946;2023-05-19T09:45:44;97518.44;;;16.44;100.00
19596;BME280;9945;46.010;8.946;2023-05-19T09:48:10;97514.81;;;16.22;100.00
19596;BME280;9945;46.010;8.946;2023-05-19T09:50:38;97505.81;;;16.54;100.00
19596;BME280;9945;46.010;8.946;2023-05-19T09:53:04;97506.25;;;16.66;100.00
19596;BME280;9945;46.010;8.946;2023-05-19T09:55:33;97505.09;;;16.83;100.00
19596;BME280;9945;46.010;8.946;2023-05-19T09:58:00;97505.25;;;16.82;100.00
19596;BME280;9945;46.010;8.946;2023-05-19T10:00:30;97505.91;;;16.84;100.00
19596;BME280;9945;46.010;8.946;2023-05-19T10:02:59;97501.97;;;16.94;100.00
19596;BME280;9945;46.010;8.946;2023-05-19T10:05:30;97499.72;;;17.06;100.00
19596;BME280;9945;46.010;8.946;2023-05-19T10:07:58;97505.09;;;17.13;100.00
19596;BME280;9945;46.010;8.946;2023-05-19T10:10:26;97503.75;;;17.17;100.00
19596;BME280;9945;46.010;8.946;2023-05-19T10:12:54;97505.41;;;17.32;100.00
19596;BME280;9945;46.010;8.946;2023-05-19T10:15:22;97507.94;;;17.40;99.67
19596;BME280;9945;46.010;8.946;2023-05-19T10:17:49;97500.00;;;17.26;98.11
19596;BME280;9945;46.010;8.946;2023-05-19T10:20:18;97493.81;;;17.33;98.79
19596;BME280;9945;46.010;8.946;2023-05-19T10:22:45;97506.28;;;17.39;98.66
19596;BME280;9945;46.010;8.946;2023-05-19T10:25:13;97496.44;;;17.33;98.89
19596;BME280;9945;46.010;8.946;2023-05-19T10:27:47;97489.78;;;17.52;97.08
19596;BME280;9945;46.010;8.946;2023-05-19T10:30:19;97495.44;;;17.49;96.93
19596;BME280;9945;46.010;8.946;2023-05-19T10:32:47;97492.16;;;17.62;96.90
19596;BME280;9945;46.010;8.946;2023-05-19T10:35:49;97491.16;;;17.63;95.49
19596;BME280;9945;46.010;8.946;2023-05-19T10:38:26;97490.75;;;17.81;97.04
19596;BME280;9945;46.010;8.946;2023-05-19T10:41:03;97492.84;;;17.56;96.97
19596;BME280;9945;46.010;8.946;2023-05-19T10:43:43;97489.91;;;17.80;95.59
19596;BME280;9945;46.010;8.946;2023-05-19T10:46:12;97482.16;;;17.78;95.42
19596;BME280;9945;46.010;8.946;2023-05-19T10:48:43;97483.19;;;17.77;93.50
19596;BME280;9945;46.010;8.946;2023-05-19T10:51:13;97486.63;;;17.78;94.70
19596;BME280;9945;46.010;8.946;2023-05-19T10:53:41;97481.09;;;17.58;96.07
19596;BME280;9945;46.010;8.946;2023-05-19T10:56:12;97482.28;;;17.56;96.36
19596;BME280;9945;46.010;8.946;2023-05-19T10:58:54;97487.91;;;17.53;97.02
19596;BME280;9945;46.010;8.946;2023-05-19T11:01:21;97477.06;;;17.48;95.80
19596;BME280;9945;46.010;8.946;2023-05-19T11:03:55;97481.19;;;17.65;95.02
19596;BME280;9945;46.010;8.946;2023-05-19T11:06:27;97475.03;;;17.79;92.73
19596;BME280;9945;46.010;8.946;2023-05-19T11:08:56;97474.19;;;17.93;92.16
19596;BME280;9945;46.010;8.946;2023-05-19T11:11:25;97470.31;;;17.96;91.71
19596;BME280;9945;46.010;8.946;2023-05-19T11:13:53;97472.84;;;18.04;90.35
19596;BME280;9945;46.010;8.946;2023-05-19T11:16:27;97474.13;;;18.08;88.59
19596;BME280;9945;46.010;8.946;2023-05-19T11:18:54;97467.75;;;18.02;89.18
19596;BME280;9945;46.010;8.946;2023-05-19T11:21:21;97476.59;;;18.09;88.76
19596;BME280;9945;46.010;8.946;2023-05-19T11:23:51;97469.16;;;18.20;86.54
19596;BME280;9945;46.010;8.946;2023-05-19T11:26:39;97464.72;;;17.84;89.20
19596;BME280;9945;46.010;8.946;2023-05-19T11:29:07;97472.03;;;18.03;87.94
19596;BME280;9945;46.010;8.946;2023-05-19T11:31:34;97461.75;;;17.94;90.76
19596;BME280;9945;46.010;8.946;2023-05-19T11:34:02;97466.50;;;18.20;90.12
19596;BME280;9945;46.010;8.946;2023-05-19T11:36:32;97468.41;;;18.26;88.89
19596;BME280;9945;46.010;8.946;2023-05-19T11:39:01;97471.03;;;18.26;87.95
19596;BME280;9945;46.010;8.946;2023-05-19T11:41:28;97460.25;;;18.27;87.17
19596;BME280;9945;46.010;8.946;2023-05-19T11:43:55;97459.19;;;18.00;88.50
19596;BME280;9945;46.010;8.946;2023-05-19T11:46:22;97463.31;;;17.52;86.22
19596;BME280;9945;46.010;8.946;2023-05-19T11:48:49;97463.84;;;17.62;89.22
19596;BME280;9945;46.010;8.946;2023-05-19T11:51:16;97454.06;;;17.63;90.70
19596;BME280;9945;46.010;8.946;2023-05-19T11:53:43;97450.88;;;17.67;90.47
19596;BME280;9945;46.010;8.946;2023-05-19T11:56:11;97446.94;;;17.49;91.86
19596;BME280;9945;46.010;8.946;2023-05-19T11:58:40;97453.72;;;17.51;89.96
19596;BME280;9945;46.010;8.946;2023-05-19T12:01:06;97442.19;;;17.59;87.28
19596;BME280;9945;46.010;8.946;2023-05-19T12:03:34;97442.47;;;17.64;86.88
19596;BME280;9945;46.010;8.946;2023-05-19T12:06:02;97443.72;;;17.53;86.20
19596;BME280;9945;46.010;8.946;2023-05-19T12:08:31;97435.59;;;17.55;86.52
19596;BME280;9945;46.010;8.946;2023-05-19T12:10:58;97447.41;;;17.37;88.01
19596;BME280;9945;46.010;8.946;2023-05-19T12:13:26;97446.41;;;17.38;89.61
19596;BME280;9945;46.010;8.946;2023-05-19T12:15:58;97458.66;;;17.39;92.28
19596;BME280;9945;46.010;8.946;2023-05-19T12:18:28;97452.72;;;17.37;90.31
19596;BME280;9945;46.010;8.946;2023-05-19T12:20:54;97450.00;;;17.31;89.47
19596;BME280;9945;46.010;8.946;2023-05-19T12:23:22;97459.94;;;17.14;89.06
19596;BME280;9945;46.010;8.946;2023-05-19T12:25:49;97453.19;;;17.26;89.24
19596;BME280;9945;46.010;8.946;2023-05-19T12:28:18;97451.88;;;17.37;89.75
19596;BME280;9945;46.010;8.946;2023-05-19T12:30:48;97449.97;;;17.46;89.28
19596;BME280;9945;46.010;8.946;2023-05-19T12:33:17;97449.59;;;17.49;89.84
19596;BME280;9945;46.010;8.946;2023-05-19T12:35:45;97447.66;;;17.57;90.22
19596;BME280;9945;46.010;8.946;2023-05-19T12:38:13;97451.88;;;17.52;88.95
19596;BME280;9945;46.010;8.946;2023-05-19T12:40:40;97452.59;;;17.46;90.83
19596;BME280;9945;46.010;8.946;2023-05-19T12:43:07;97455.19;;;17.39;91.49
19596;BME280;9945;46.010;8.946;2023-05-19T12:45:35;97462.09;;;17.55;90.60
19596;BME280;9945;46.010;8.946;2023-05-19T12:48:10;97457.78;;;17.54;93.44
19596;BME280;9945;46.010;8.946;2023-05-19T12:50:40;97457.00;;;17.38;93.15
19596;BME280;9945;46.010;8.946;2023-05-19T12:53:07;97462.19;;;17.47;92.10
19596;BME280;9945;46.010;8.946;2023-05-19T12:55:37;97455.91;;;17.48;94.41
19596;BME280;9945;46.010;8.946;2023-05-19T12:58:06;97456.63;;;17.56;95.65
19596;BME280;9945;46.010;8.946;2023-05-19T13:00:39;97458.25;;;17.57;95.88
19596;BME280;9945;46.010;8.946;2023-05-19T13:03:14;97458.50;;;17.26;95.08
19596;BME280;9945;46.010;8.946;2023-05-19T13:05:43;97457.47;;;17.42;95.06
19596;BME280;9945;46.010;8.946;2023-05-19T13:08:11;97454.09;;;17.33;95.52
19596;BME280;9945;46.010;8.946;2023-05-19T13:10:43;97462.00;;;17.48;94.42
19596;BME280;9945;46.010;8.946;2023-05-19T13:13:11;97452.53;;;17.39;95.90
19596;BME280;9945;46.010;8.946;2023-05-19T13:15:40;97459.13;;;17.43;96.78